Cap-Rouge, Canada
Current Conditions -  °F | °C
As of 8:00 PM on Friday 24 Oct 2014 (Local Time) from CYQB Reporting Station
Broken Clouds Broken Clouds  
Wind Chill: 41°   Ceiling: 12000
Heat Index: 41°   Visibility: 15mi
Dew Point: 36°   Wind: 3mph
Humidity: 81%   Direction: 240°WSW
Pressure: 29.81"   Gusts: NA
Location:  46.75°N, 71.35°W
Report Text: CYQB 250000Z 24003KT 15SM BKN120 BKN200 05/02 A2981 RMK AC5CI2 SLP097
Loading
Personal Weather Stations






























Interactive Weather Map
Tropical Storm Tracking
New forecast layout! Learn more

10-Day Weather Forecast

Advertisements
Track Severe Weather on mobile